Time;durP1;ratioP1;P1;durP2;ratioP2;P2;SDS_P1;SDS_P2;PMS_P1;PMS_P2;Temp;Humidity;BMP_temperature;BMP_pressure;BME280_temperature;BME280_humidity;BME280_pressure;Samples;Min_cycle;Max_cycle;Signal;HPM_P1;HPM_P2
2023/02/07 08:01:52;;;;;;;22.50;12.00;;;;;;;-4.30;59.09;102303.86;109365;1260;612947;-90
2023/02/07 08:05:11;;;;;;;18.10;10.00;;;;;;;-4.31;59.15;102304.17;110849;1243;1001739;-90
2023/02/07 08:08:00;;;;;;;18.30;9.70;;;;;;;-4.32;58.98;102313.20;111268;1244;59110;-89
2023/02/07 08:11:54;;;;;;;21.30;11.00;;;;;;;-4.41;59.08;102313.97;112316;1236;73893;-88
2023/02/07 08:16:09;;;;;;;19.30;8.60;;;;;;;-4.57;58.89;102304.44;111693;1241;63305;-91
2023/02/07 08:29:34;;;;;;;18.10;8.20;;;;;;;-4.66;59.67;102313.39;109986;1253;59164;-89
2023/02/07 08:33:54;;;;;;;;;;;;;;;-4.53;59.46;102318.23;109881;1254;70804;-90
2023/02/07 08:37:42;;;;;;;12.20;7.80;;;;;;;-4.60;58.67;102313.92;109797;1253;63654;-88
2023/02/07 08:40:45;;;;;;;19.20;8.20;;;;;;;-4.73;58.95;102312.52;109386;1254;71291;-90
2023/02/07 08:43:21;;;;;;;15.60;8.30;;;;;;;-4.77;59.06;102305.23;109417;1254;59917;-88
2023/02/07 08:46:19;;;;;;;12.10;7.20;;;;;;;-4.76;59.56;102300.14;110995;1236;59187;-90
2023/02/07 08:49:40;;;;;;;16.00;6.70;;;;;;;-4.80;59.80;102297.30;112138;1233;73805;-89
2023/02/07 09:05:39;;;;;;;14.10;6.50;;;;;;;-4.70;60.50;102282.73;110875;1246;59983;-88
2023/02/07 09:09:09;;;;;;;17.40;8.20;;;;;;;-4.64;60.88;102282.40;109584;1254;71958;-87
2023/02/07 09:12:13;;;;;;;15.30;7.70;;;;;;;-4.48;60.85;102281.52;109737;1254;61538;-88
2023/02/07 09:14:54;;;;;;;;;;;;;;;-4.35;60.86;102292.45;109603;1254;73624;-88
2023/02/07 09:17:54;;;;;;;16.10;6.50;;;;;;;-4.28;61.10;102284.11;109806;1257;59184;-88
2023/02/07 09:30:13;;;;;;;;;;;;;;;;;;;;;
2023/02/07 09:33:30;;;;;;;;;;;;;;;-2.93;60.60;102276.72;112440;1234;71127;-88
2023/02/07 09:53:03;;;;;;;14.40;8.10;;;;;;;-0.03;51.57;102286.15;111866;1241;71816;-88
2023/02/07 09:56:46;;;;;;;10.00;6.70;;;;;;;0.32;51.22;102282.38;112448;1233;58162;-89
2023/02/07 10:00:43;;;;;;;11.20;6.40;;;;;;;0.56;50.49;102282.42;112151;1240;58910;-91
2023/02/07 10:04:47;;;;;;;10.60;7.10;;;;;;;0.65;49.91;102285.23;111020;1248;71696;-91
2023/02/07 10:08:45;;;;;;;19.60;9.40;;;;;;;0.58;49.65;102287.76;111194;1234;62568;-90
2023/02/07 10:13:33;;;;;;;9.90;6.80;;;;;;;0.17;49.78;102279.98;112022;1238;71428;-91
2023/02/07 10:26:35;;;;;;;12.20;7.00;;;;;;;0.05;51.19;102276.09;110254;1253;71583;-90
2023/02/07 10:29:32;;;;;;;20.90;8.80;;;;;;;-0.01;51.26;102277.06;110352;1254;63856;-90
2023/02/07 10:32:10;;;;;;;12.80;8.10;;;;;;;-0.16;51.28;102272.94;110265;1254;72435;-88
2023/02/07 10:34:44;;;;;;;15.30;6.50;;;;;;;-0.15;51.79;102274.50;110116;1254;59438;-89
2023/02/07 10:37:26;;;;;;;13.60;7.50;;;;;;;-0.05;51.64;102272.73;110340;1250;59576;-89
2023/02/07 10:40:19;;;;;;;18.50;8.30;;;;;;;-0.07;51.28;102266.33;110655;1250;73945;-90
2023/02/07 10:42:51;;;;;;;10.80;7.30;;;;;;;-0.25;51.52;102273.88;110749;1250;64623;-89
2023/02/07 10:45:20;;;;;;;11.00;7.60;;;;;;;-0.43;51.47;102274.70;110466;1251;73417;-88
2023/02/07 10:47:51;;;;;;;25.90;13.70;;;;;;;-0.53;52.71;102275.27;110772;1250;59845;-88
2023/02/07 10:50:21;;;;;;;13.20;8.80;;;;;;;-0.34;52.39;102271.53;110551;1251;61218;-90
2023/02/07 10:53:07;;;;;;;16.10;9.10;;;;;;;-0.23;51.92;102274.76;110700;1247;74267;-88
2023/02/07 10:55:45;;;;;;;10.80;6.50;;;;;;;-0.07;51.67;102275.80;111891;1233;62962;-90
2023/02/07 10:58:16;;;;;;;9.60;6.70;;;;;;;0.26;51.26;102273.38;112319;1233;71894;-89
2023/02/07 11:00:51;;;;;;;10.80;6.60;;;;;;;0.49;50.73;102275.46;112374;1233;59962;-90
2023/02/07 11:03:21;;;;;;;13.30;7.50;;;;;;;0.72;50.42;102274.27;112192;1233;59959;-89
2023/02/07 11:05:59;;;;;;;12.60;8.10;;;;;;;1.05;50.13;102283.29;112159;1233;73652;-90
2023/02/07 11:08:34;;;;;;;14.90;8.10;;;;;;;1.38;49.69;102282.95;112366;1234;63526;-91
2023/02/07 11:11:19;;;;;;;14.90;7.30;;;;;;;1.51;48.79;102281.63;112054;1233;72667;-91
2023/02/07 11:13:50;;;;;;;10.70;7.10;;;;;;;1.42;48.82;102288.14;112363;1234;60331;-89
2023/02/07 11:16:18;;;;;;;15.10;7.20;;;;;;;1.49;49.20;102289.55;112164;1233;60181;-88
2023/02/07 11:19:20;;;;;;;11.30;7.40;;;;;;;1.65;48.66;102280.83;112074;1233;73179;-92
2023/02/07 11:21:48;;;;;;;9.90;6.80;;;;;;;1.58;48.27;102280.97;111696;1240;63751;-91
2023/02/07 11:24:30;;;;;;;13.90;8.00;;;;;;;1.48;48.05;102285.76;111665;1240;73774;-89
2023/02/07 11:27:02;;;;;;;12.10;7.10;;;;;;;1.26;48.45;102287.20;111553;1242;59390;-91
2023/02/07 11:29:31;;;;;;;11.20;7.70;;;;;;;1.00;48.95;102294.27;111690;1240;59875;-90
2023/02/07 11:31:59;;;;;;;12.20;6.80;;;;;;;0.73;49.41;102291.15;111700;1240;72948;-92
2023/02/07 11:34:26;;;;;;;11.80;7.00;;;;;;;0.38;50.07;102290.17;111708;1240;64772;-92
2023/02/07 11:36:55;;;;;;;18.00;7.20;;;;;;;0.06;50.66;102292.77;111818;1240;73466;-88
2023/02/07 11:39:22;;;;;;;12.20;7.20;;;;;;;-0.29;51.33;102290.15;111798;1240;59448;-89
2023/02/07 11:41:54;;;;;;;8.60;5.80;;;;;;;-0.53;52.40;102293.13;111817;1240;60316;-91
2023/02/07 11:44:23;;;;;;;11.70;6.80;;;;;;;-0.74;53.02;102293.36;111586;1240;73621;-89
2023/02/07 11:46:51;;;;;;;14.20;7.80;;;;;;;-0.90;53.80;102289.36;111725;1240;64608;-90
2023/02/07 11:49:38;;;;;;;11.10;6.50;;;;;;;-1.03;54.08;102290.38;111837;1240;73035;-90
2023/02/07 11:52:12;;;;;;;16.00;8.00;;;;;;;-1.14;54.96;102291.40;112049;1239;59326;-88
2023/02/07 11:54:41;;;;;;;15.50;8.00;;;;;;;-1.32;55.60;102288.21;111796;1239;61137;-88
2023/02/07 11:57:13;;;;;;;28.50;16.70;;;;;;;-1.36;56.00;102288.64;111938;1233;72802;-90
2023/02/07 12:03:32;;;;;;;17.50;7.60;;;;;;;-1.47;56.70;102296.72;112093;1235;75342;-87
2023/02/07 12:06:59;;;;;;;11.90;8.00;;;;;;;-1.57;57.41;102292.94;112176;1235;60512;-88
2023/02/07 12:09:54;;;;;;;10.20;6.90;;;;;;;-1.56;57.91;102300.15;111492;1241;60159;-90
2023/02/07 12:12:33;;;;;;;10.80;6.90;;;;;;;-1.53;58.46;102299.02;111422;1241;72697;-90
2023/02/07 12:15:05;;;;;;;13.70;7.30;;;;;;;-1.54;58.52;102305.17;111406;1241;63714;-91
2023/02/07 12:17:38;;;;;;;14.50;7.10;;;;;;;-1.56;58.65;102302.04;111530;1242;73554;-91
2023/02/07 12:20:12;;;;;;;15.00;8.40;;;;;;;-1.64;58.56;102297.27;111662;1241;60153;-91
2023/02/07 12:22:47;;;;;;;10.70;6.90;;;;;;;-1.75;58.38;102296.91;111583;1241;60711;-91
2023/02/07 12:25:35;;;;;;;18.70;8.10;;;;;;;-1.84;58.88;102297.27;111550;1241;74137;-87
2023/02/07 12:28:06;;;;;;;10.60;6.70;;;;;;;-1.91;58.95;102295.59;111536;1241;65898;-89
2023/02/07 12:30:38;;;;;;;17.20;7.50;;;;;;;-1.99;58.88;102296.83;111560;1241;72998;-90
2023/02/07 12:33:22;;;;;;;15.50;8.00;;;;;;;-2.03;58.99;102294.16;111488;1241;59457;-89
2023/02/07 12:36:13;;;;;;;11.00;6.00;;;;;;;-2.01;59.21;102290.27;111432;1241;58967;-90
2023/02/07 12:38:45;;;;;;;11.30;6.80;;;;;;;-2.03;59.28;102300.35;111571;1241;72615;-90
2023/02/07 12:41:32;;;;;;;14.40;7.10;;;;;;;-2.02;59.40;102297.95;111622;1241;63183;-89
2023/02/07 12:44:14;;;;;;;16.90;6.70;;;;;;;-1.97;59.70;102299.94;111692;1241;72472;-90
2023/02/07 12:46:48;;;;;;;11.20;7.40;;;;;;;-1.98;59.70;102298.55;112233;1235;59140;-89
2023/02/07 12:49:55;;;;;;;11.90;7.60;;;;;;;-2.04;59.86;102304.09;112150;1234;59882;-88
2023/02/07 12:52:36;;;;;;;9.80;6.20;;;;;;;-2.10;59.84;102302.27;112612;1234;72952;-90
2023/02/07 12:55:19;;;;;;;10.20;5.80;;;;;;;-2.09;60.08;102306.74;112270;1235;63617;-89
2023/02/07 12:58:17;;;;;;;14.30;6.30;;;;;;;-2.14;60.05;102304.25;112440;1235;72546;-89
2023/02/07 13:01:26;;;;;;;10.50;6.10;;;;;;;-2.23;60.25;102308.01;112232;1234;60149;-91
2023/02/07 13:03:59;;;;;;;14.50;7.60;;;;;;;-2.31;60.54;102310.94;111595;1247;59446;-90
2023/02/07 13:06:36;;;;;;;10.80;6.60;;;;;;;-2.33;60.85;102307.98;111488;1244;72922;-90
2023/02/07 13:09:26;;;;;;;10.10;7.20;;;;;;;-2.27;61.17;102314.08;111523;1243;64586;-89
2023/02/07 13:12:14;;;;;;;12.40;7.60;;;;;;;-2.22;61.13;102314.02;111661;1243;73335;-89
2023/02/07 13:15:08;;;;;;;14.50;7.30;;;;;;;-2.25;61.12;102313.10;111571;1243;60127;-90
2023/02/07 13:18:06;;;;;;;11.50;5.90;;;;;;;-2.31;61.28;102313.49;111697;1244;59585;-90
2023/02/07 13:21:47;;;;;;;10.70;7.30;;;;;;;-2.40;61.40;102308.16;111649;1246;73665;-89
2023/02/07 13:24:57;;;;;;;10.30;6.70;;;;;;;-2.52;61.78;102313.57;111240;1248;63612;-90
2023/02/07 13:28:19;;;;;;;15.40;8.70;;;;;;;-2.60;62.49;102307.06;111141;1251;71267;-89
2023/02/07 13:31:12;;;;;;;15.20;7.50;;;;;;;-2.68;62.65;102310.83;111205;1249;61196;-89
2023/02/07 13:34:30;;;;;;;11.40;5.60;;;;;;;-2.74;63.03;102313.11;110919;1247;59440;-92
2023/02/07 13:37:15;;;;;;;11.90;6.50;;;;;;;-2.82;63.06;102314.79;111336;1247;74296;-89
2023/02/07 13:40:35;;;;;;;17.10;7.00;;;;;;;-2.89;63.69;102311.06;111299;1247;63673;-90
2023/02/07 13:43:41;;;;;;;11.00;6.00;;;;;;;-2.88;64.05;102312.09;110560;1254;72654;-91
2023/02/07 13:47:36;;;;;;;11.80;6.30;;;;;;;-2.89;64.33;102309.15;110433;1254;61323;-91
2023/02/07 13:50:55;;;;;;;12.20;7.20;;;;;;;-2.90;64.52;102313.08;109706;1260;59429;-89
2023/02/07 13:54:40;;;;;;;15.40;7.30;;;;;;;-2.93;64.35;102320.21;111682;1235;75010;-91
2023/02/07 14:00:48;;;;;;;9.90;7.10;;;;;;;-3.01;64.26;102334.55;112625;1235;71662;-90
2023/02/07 14:03:31;;;;;;;9.70;6.90;;;;;;;-3.02;64.56;102339.48;112385;1234;60262;-89
2023/02/07 14:06:42;;;;;;;13.70;7.00;;;;;;;-3.05;64.17;102337.70;112308;1233;61412;-90
2023/02/07 14:09:47;;;;;;;17.40;6.50;;;;;;;-3.08;64.41;102345.66;111965;1237;75499;31
2023/02/07 14:12:24;;;;;;;12.10;7.70;;;;;;;-3.09;64.41;102357.45;112280;1234;63749;-89
2023/02/07 14:19:19;;;;;;;7.90;6.00;;;;;;;-3.12;64.36;102366.63;112503;1234;58864;-91
2023/02/07 14:22:36;;;;;;;13.60;5.90;;;;;;;-3.11;64.68;102373.49;112149;1238;59149;31
2023/02/07 14:25:35;;;;;;;14.20;7.80;;;;;;;-3.13;64.94;102378.60;112413;1233;72260;-89
2023/02/07 14:28:30;;;;;;;;;;;;;;;-3.09;65.10;102385.17;112693;1234;63653;-91
2023/02/07 14:31:03;;;;;;;11.40;7.30;;;;;;;-3.06;65.19;102387.98;112549;1234;72368;-88
2023/02/07 14:34:21;;;;;;;12.40;6.10;;;;;;;-3.00;65.31;102397.71;112374;1234;58662;-89
2023/02/07 14:37:39;;;;;;;9.50;6.60;;;;;;;-2.96;65.53;102395.92;112566;1234;58659;-90
2023/02/07 14:40:47;;;;;;;12.70;7.30;;;;;;;-2.98;65.23;102395.20;112269;1234;73735;-89
2023/02/07 14:43:58;;;;;;;12.50;6.20;;;;;;;-2.93;65.14;102404.56;111721;1243;65389;-88
2023/02/07 14:47:07;;;;;;;10.70;6.90;;;;;;;-2.91;65.09;102404.94;111671;1245;72547;-89
2023/02/07 14:49:50;;;;;;;16.30;7.60;;;;;;;-2.91;65.21;102409.90;111568;1243;59321;-90
2023/02/07 14:52:46;;;;;;;11.80;7.10;;;;;;;-2.91;65.25;102414.20;112025;1232;59506;31
2023/02/07 14:55:48;;;;;;;11.40;7.30;;;;;;;-2.90;65.09;102426.19;112715;1234;73723;-88
2023/02/07 14:59:52;;;;;;;15.40;7.80;;;;;;;-2.89;65.45;102435.27;112509;1235;62317;-90
2023/02/07 15:03:17;;;;;;;13.80;8.30;;;;;;;-2.88;65.42;102449.16;112357;1234;73663;-92
2023/02/07 15:05:55;;;;;;;13.60;7.90;;;;;;;-2.93;65.13;102458.80;111827;1240;60171;-89
2023/02/07 15:08:59;;;;;;;12.90;7.20;;;;;;;-2.98;65.28;102463.28;111605;1242;58105;-89
2023/02/07 15:11:44;;;;;;;14.80;8.80;;;;;;;-3.03;65.38;102469.48;111761;1241;73773;-90
2023/02/07 15:14:34;;;;;;;14.20;7.70;;;;;;;-3.07;65.43;102471.26;111798;1240;62483;-89
2023/02/07 15:17:35;;;;;;;15.40;8.80;;;;;;;-3.10;65.85;102474.27;111838;1241;73466;-90
2023/02/07 15:20:17;;;;;;;16.60;9.50;;;;;;;-3.13;66.05;102475.04;111808;1241;61498;-91
2023/02/07 15:23:06;;;;;;;17.00;9.60;;;;;;;-3.11;65.80;102485.02;111614;1245;59315;-91
2023/02/07 15:25:36;;;;;;;15.30;9.20;;;;;;;-3.11;65.58;102481.77;111621;1244;72426;-89
2023/02/07 15:28:21;;;;;;;22.90;13.40;;;;;;;-3.12;65.83;102485.67;111606;1244;63717;-90
2023/02/07 15:31:27;;;;;;;14.80;8.50;;;;;;;-3.17;65.97;102497.52;111887;1234;72198;-90
2023/02/07 15:34:31;;;;;;;15.00;7.10;;;;;;;-3.24;66.10;102502.30;111781;1239;61882;-91
2023/02/07 15:37:21;;;;;;;13.50;7.60;;;;;;;-3.22;66.18;102503.20;111651;1242;61283;-91
2023/02/07 15:39:57;;;;;;;10.20;6.60;;;;;;;-3.19;66.61;102509.80;111553;1242;73483;-89
2023/02/07 15:42:25;;;;;;;12.60;7.20;;;;;;;-3.21;66.32;102509.23;111594;1242;62851;-90
2023/02/07 15:44:59;;;;;;;18.10;10.20;;;;;;;-3.31;66.59;102504.33;111615;1243;71790;-89
2023/02/07 15:47:37;;;;;;;15.10;8.70;;;;;;;-3.36;66.42;102516.52;111636;1242;59844;-91
2023/02/07 15:50:24;;;;;;;17.00;9.20;;;;;;;-3.39;66.53;102522.23;111688;1242;59943;-91
2023/02/07 16:04:24;;;;;;;16.20;9.00;;;;;;;-3.69;67.39;102554.33;112696;1234;61132;-89
2023/02/07 16:22:53;;;;;;;13.80;7.40;;;;;;;-3.98;68.90;102577.21;112481;1233;58814;-89
2023/02/07 16:26:04;;;;;;;17.20;9.20;;;;;;;-3.93;68.66;102578.72;112329;1234;59882;-90
2023/02/07 16:28:41;;;;;;;17.70;9.20;;;;;;;-3.92;68.40;102580.82;112439;1234;73288;-90
2023/02/07 16:31:14;;;;;;;13.10;7.50;;;;;;;-3.92;68.24;102586.62;112355;1234;63740;-90
2023/02/07 16:34:23;;;;;;;15.20;8.10;;;;;;;-4.00;68.37;102594.59;111725;1241;71067;-90
2023/02/07 16:37:13;;;;;;;14.50;8.50;;;;;;;-4.11;68.38;102597.45;112300;1233;59375;-91
2023/02/07 16:40:50;;;;;;;18.80;9.50;;;;;;;-4.20;68.50;102596.84;112453;1233;59202;-89
2023/02/07 16:44:25;;;;;;;18.70;7.80;;;;;;;-4.29;68.77;102602.33;112644;1232;75238;-91
2023/02/07 16:48:25;;;;;;;22.70;10.20;;;;;;;-4.31;69.14;102606.39;112286;1233;62362;-92
2023/02/07 16:51:46;;;;;;;14.80;8.70;;;;;;;-4.30;68.99;102606.06;112439;1234;73662;-90
2023/02/07 16:55:37;;;;;;;15.60;9.30;;;;;;;-4.27;69.29;102613.33;112686;1234;61562;-91
2023/02/07 16:58:39;;;;;;;21.70;8.90;;;;;;;-4.23;69.45;102611.73;112542;1233;58712;-91
2023/02/07 17:08:19;;;;;;;16.80;9.30;;;;;;;-4.17;69.33;102628.52;112041;1234;71398;31
2023/02/07 17:20:56;;;;;;;18.50;9.00;;;;;;;-4.15;69.03;102650.60;112677;1233;65141;-89
2023/02/07 17:24:03;;;;;;;19.10;10.50;;;;;;;-4.21;69.16;102651.80;112381;1233;73404;-91
2023/02/07 17:27:18;;;;;;;19.00;9.60;;;;;;;-4.25;69.06;102651.99;112476;1234;59212;-91
2023/02/07 17:30:46;;;;;;;20.20;10.10;;;;;;;-4.29;69.15;102654.61;111952;1241;60155;-92
2023/02/07 17:33:55;;;;;;;13.90;8.70;;;;;;;-4.31;68.98;102655.20;111848;1239;73975;-88
2023/02/07 17:52:21;;;;;;;18.50;10.40;;;;;;;-4.10;68.83;102678.96;112304;1230;72444;-91
2023/02/07 17:55:53;;;;;;;;;;;;;;;-4.09;68.25;102680.35;112300;1234;65786;-90
2023/02/07 18:21:48;;;;;;;16.70;9.10;;;;;;;-3.93;67.82;102726.87;112385;1232;60754;31
2023/02/07 18:32:45;;;;;;;14.90;8.30;;;;;;;-3.81;67.92;102746.42;112615;1235;72092;-91
2023/02/07 18:39:42;;;;;;;14.20;7.80;;;;;;;-3.86;67.70;102752.86;112156;1233;59024;-92
2023/02/07 18:42:14;;;;;;;14.40;7.20;;;;;;;-3.88;67.99;102760.18;112097;1234;74013;-91
2023/02/07 18:45:00;;;;;;;11.30;7.80;;;;;;;-3.87;67.72;102765.66;111950;1241;63955;-91
2023/02/07 18:47:32;;;;;;;16.50;8.30;;;;;;;-3.83;67.53;102775.54;112446;1233;73695;-91
2023/02/07 18:50:00;;;;;;;15.10;9.30;;;;;;;-3.84;67.40;102776.38;112260;1233;60156;-90
2023/02/07 18:53:06;;;;;;;11.80;7.60;;;;;;;-3.85;67.65;102774.27;111995;1235;59914;-91
2023/02/07 18:59:20;;;;;;;14.00;8.30;;;;;;;-3.94;67.38;102789.00;112477;1233;63506;-91
2023/02/07 19:06:50;;;;;;;13.70;7.90;;;;;;;-4.09;67.87;102798.56;111742;1241;60483;-94
2023/02/07 19:13:31;;;;;;;12.40;7.50;;;;;;;-4.04;67.39;102806.41;112343;1234;74216;-91
2023/02/07 19:16:18;;;;;;;13.10;8.50;;;;;;;-4.08;67.91;102809.01;112196;1235;64908;-92
2023/02/07 19:18:50;;;;;;;16.00;8.20;;;;;;;-4.09;67.64;102817.34;111630;1238;71364;-93
2023/02/07 19:21:25;;;;;;;15.10;7.80;;;;;;;-4.12;68.00;102819.62;111851;1238;62165;-92
2023/02/07 19:24:14;;;;;;;14.60;8.30;;;;;;;-4.14;67.86;102829.45;111838;1238;59221;-92
2023/02/07 19:26:42;;;;;;;14.90;10.30;;;;;;;-4.20;67.96;102828.77;111642;1238;72643;-91
2023/02/07 19:29:13;;;;;;;15.80;9.50;;;;;;;-4.22;67.96;102830.73;111869;1238;64093;-94
2023/02/07 19:31:42;;;;;;;14.70;8.80;;;;;;;-4.21;67.94;102828.73;111693;1238;72400;-92
2023/02/07 19:34:13;;;;;;;15.00;9.90;;;;;;;-4.21;67.64;102831.26;111677;1238;58145;-90
2023/02/07 19:36:52;;;;;;;16.00;9.40;;;;;;;-4.26;67.52;102821.17;111934;1238;62255;-92
2023/02/07 19:39:48;;;;;;;17.90;9.80;;;;;;;-4.30;67.53;102828.73;111827;1238;77339;-93
2023/02/07 19:42:16;;;;;;;17.10;8.10;;;;;;;-4.38;67.23;102825.20;111855;1238;64586;-92
2023/02/07 19:45:41;;;;;;;14.20;8.40;;;;;;;-4.41;67.47;102822.35;111872;1238;72091;-92
2023/02/07 19:48:35;;;;;;;13.40;8.30;;;;;;;-4.44;67.52;102827.86;111926;1235;60847;-93
2023/02/07 19:51:45;;;;;;;16.30;7.90;;;;;;;-4.41;67.84;102830.52;112002;1244;59216;-93
2023/02/07 19:54:41;;;;;;;15.60;9.10;;;;;;;-4.38;67.27;102835.75;111767;1238;72691;-91
2023/02/07 19:57:11;;;;;;;15.80;8.70;;;;;;;-4.40;67.24;102837.24;111909;1238;63655;-91
2023/02/07 19:59:41;;;;;;;21.10;9.60;;;;;;;-4.43;67.35;102840.88;112016;1237;72294;-90
2023/02/07 20:02:10;;;;;;;14.60;8.40;;;;;;;-4.45;67.28;102846.59;111979;1237;60057;-90
2023/02/07 20:08:34;;;;;;;18.80;10.30;;;;;;;-4.48;66.99;102855.55;103871;1289;601633;-89
2023/02/07 20:12:10;;;;;;;13.40;8.10;;;;;;;-4.60;66.95;102863.60;106200;1271;61556;-89
2023/02/07 20:14:41;;;;;;;21.50;10.40;;;;;;;-4.66;66.87;102860.81;106636;1270;60329;-89
2023/02/07 20:17:17;;;;;;;14.00;8.40;;;;;;;-4.71;66.88;102867.45;106436;1269;72562;-90
2023/02/07 20:19:48;;;;;;;17.00;7.90;;;;;;;-4.78;66.96;102876.23;106885;1270;63972;-90
2023/02/07 20:22:23;;;;;;;17.60;9.50;;;;;;;-4.83;66.92;102874.14;106034;1267;873042;-90
2023/02/07 20:25:00;;;;;;;16.10;9.30;;;;;;;-4.89;66.94;102873.22;106287;1262;62491;-91
2023/02/07 20:27:29;;;;;;;16.70;9.10;;;;;;;-4.83;66.78;102885.75;106402;1264;60354;-90
2023/02/07 20:30:07;;;;;;;16.80;9.40;;;;;;;-4.80;66.56;102884.33;106387;1262;72098;-91
2023/02/07 20:33:26;;;;;;;18.90;9.50;;;;;;;-4.80;66.27;102886.52;106430;1264;64785;-90
2023/02/07 20:36:09;;;;;;;15.70;9.70;;;;;;;-4.80;66.23;102896.11;107083;1270;73081;-90
2023/02/07 20:38:38;;;;;;;19.50;9.40;;;;;;;-4.83;66.37;102903.30;106596;1269;60124;-89
2023/02/07 20:41:27;;;;;;;18.10;8.40;;;;;;;-4.85;65.87;102911.75;106812;1269;59857;-88
2023/02/07 20:44:04;;;;;;;20.40;8.70;;;;;;;-4.95;66.27;102913.73;106405;1269;74131;-90
2023/02/07 20:46:38;;;;;;;19.20;9.60;;;;;;;-5.08;66.59;102920.18;106026;1268;63859;-90
2023/02/07 20:49:18;;;;;;;18.50;9.60;;;;;;;-5.21;66.33;102925.96;106031;1270;72660;-90
2023/02/07 20:51:50;;;;;;;18.90;10.10;;;;;;;-5.36;66.72;102925.00;105987;1273;59906;-90
2023/02/07 20:54:40;;;;;;;14.50;9.70;;;;;;;-5.44;66.88;102937.77;105804;1269;59751;-92
2023/02/07 20:57:22;;;;;;;16.00;9.10;;;;;;;-5.53;67.18;102934.13;106122;1266;72970;-91
2023/02/07 20:59:54;;;;;;;18.40;10.10;;;;;;;-5.58;67.00;102934.42;106103;1260;63134;-90
2023/02/07 21:03:02;;;;;;;13.80;8.80;;;;;;;-5.58;67.31;102945.50;106126;1261;73406;-91
2023/02/07 21:05:34;;;;;;;13.20;8.80;;;;;;;-5.63;67.32;102943.59;107181;1260;60888;-89
2023/02/07 21:08:07;;;;;;;17.70;9.90;;;;;;;-5.71;67.72;102945.11;108078;1260;60671;-91
2023/02/07 21:10:44;;;;;;;15.90;10.40;;;;;;;-5.66;67.55;102954.36;109004;1261;72186;-90
2023/02/07 21:13:34;;;;;;;16.00;9.00;;;;;;;-5.64;67.72;102953.79;107278;1266;63158;-90
2023/02/07 21:16:54;;;;;;;17.20;10.00;;;;;;;-5.63;67.77;102964.92;107524;1263;73542;-90
2023/02/07 21:19:26;;;;;;;17.60;9.70;;;;;;;-5.70;67.57;102968.66;108385;1264;60370;-90
2023/02/07 21:21:59;;;;;;;18.30;9.90;;;;;;;-5.77;67.46;102976.70;108565;1263;59093;-91
2023/02/07 21:24:34;;;;;;;15.40;8.90;;;;;;;-5.80;67.70;102983.56;107378;1264;74187;-89
2023/02/07 21:27:05;;;;;;;18.80;9.90;;;;;;;-5.81;67.83;102991.85;107377;1263;63628;-88
2023/02/07 21:29:37;;;;;;;19.60;9.50;;;;;;;-5.83;67.72;103000.11;107372;1264;72338;-88
2023/02/07 21:32:10;;;;;;;20.10;10.10;;;;;;;-5.90;67.98;103008.31;106077;1266;61361;-90
2023/02/07 21:34:38;;;;;;;17.90;10.70;;;;;;;-5.93;67.99;103007.81;107116;1259;60367;-88
2023/02/07 21:37:12;;;;;;;14.60;9.40;;;;;;;-5.90;68.05;103009.65;107720;1259;72993;-88
2023/02/07 21:39:41;;;;;;;14.60;9.00;;;;;;;-5.85;68.08;103010.08;106954;1259;62791;-87
2023/02/07 21:42:09;;;;;;;14.60;9.70;;;;;;;-5.84;68.32;103007.58;106805;1260;74377;-90
2023/02/07 21:44:40;;;;;;;18.40;10.40;;;;;;;-5.81;68.15;103003.96;107217;1259;60728;-89
2023/02/07 21:47:09;;;;;;;16.60;9.40;;;;;;;-5.79;68.03;103012.91;107522;1259;60085;-87
2023/02/07 21:49:37;;;;;;;20.10;10.80;;;;;;;-5.86;68.15;103014.79;106800;1260;73739;-89
2023/02/07 21:52:07;;;;;;;18.10;9.20;;;;;;;-5.91;68.28;103013.71;106277;1260;65014;-89
2023/02/07 21:54:41;;;;;;;13.80;8.70;;;;;;;-5.97;68.08;103017.89;108145;1254;73379;-87
2023/02/07 21:57:09;;;;;;;16.70;8.90;;;;;;;-6.04;67.88;103023.36;108081;1254;60047;-88
2023/02/07 21:59:40;;;;;;;19.90;10.50;;;;;;;-6.13;68.22;103017.80;106893;1254;60195;-91
2023/02/07 22:02:13;;;;;;;17.70;10.70;;;;;;;-6.18;68.69;103017.23;106202;1259;74010;-92
2023/02/07 22:04:45;;;;;;;22.20;9.00;;;;;;;-6.21;68.50;103016.73;106271;1254;64865;-91
2023/02/07 22:07:14;;;;;;;20.30;10.70;;;;;;;-6.21;68.61;103017.59;105919;1260;74052;-91
2023/02/07 22:09:43;;;;;;;19.10;10.80;;;;;;;-6.21;68.81;103023.19;106246;1258;63164;-90
2023/02/07 22:12:12;;;;;;;17.00;9.80;;;;;;;-6.23;68.71;103022.61;106493;1254;61053;-89
2023/02/07 22:14:40;;;;;;;16.30;9.80;;;;;;;-6.22;69.00;103024.49;106747;1254;74031;-89
2023/02/07 22:17:10;;;;;;;16.20;9.10;;;;;;;-6.23;69.19;103023.95;106107;1256;63587;-90
2023/02/07 22:19:39;;;;;;;15.60;9.10;;;;;;;-6.22;69.03;103023.52;106395;1254;73913;-90
2023/02/07 22:22:09;;;;;;;15.70;9.30;;;;;;;-6.19;69.52;103024.85;106799;1254;62160;-92
2023/02/07 22:24:38;;;;;;;13.30;7.80;;;;;;;-6.10;69.16;103031.58;106337;1254;60127;-92
2023/02/07 22:27:06;;;;;;;20.30;9.30;;;;;;;-6.04;68.93;103030.48;106372;1254;74079;-91
2023/02/07 22:29:35;;;;;;;16.50;8.60;;;;;;;-5.99;68.87;103033.27;106163;1254;63928;-91
2023/02/07 22:32:06;;;;;;;14.40;9.00;;;;;;;-5.96;68.89;103035.13;106629;1255;71582;-88
2023/02/07 22:34:36;;;;;;;16.30;7.20;;;;;;;-5.87;68.81;103040.81;106276;1258;60147;-88
2023/02/07 22:37:05;;;;;;;9.50;7.20;;;;;;;-5.83;68.77;103040.48;106212;1254;62484;-90
2023/02/07 22:39:33;;;;;;;13.60;6.90;;;;;;;-5.84;68.38;103040.80;106215;1254;73693;-90
2023/02/07 22:42:05;;;;;;;15.30;8.20;;;;;;;-5.84;68.24;103040.80;106071;1254;64053;-90
2023/02/07 22:44:33;;;;;;;14.70;8.20;;;;;;;-5.81;68.00;103040.90;106087;1257;72630;-91
2023/02/07 22:47:02;;;;;;;13.30;8.90;;;;;;;-5.86;67.64;103037.46;106307;1258;61007;-89
2023/02/07 22:49:30;;;;;;;14.80;8.30;;;;;;;-5.89;68.25;103040.17;107062;1254;60925;-90
2023/02/07 22:51:58;;;;;;;17.00;9.20;;;;;;;-5.85;68.20;103038.67;106874;1259;74229;-89
2023/02/07 22:54:27;;;;;;;13.10;8.20;;;;;;;-5.76;68.04;103043.17;106421;1254;64557;-90
2023/02/07 22:57:23;;;;;;;14.00;9.40;;;;;;;-5.70;67.95;103045.01;106583;1259;76195;-89
2023/02/07 22:59:53;;;;;;;14.40;8.70;;;;;;;-5.71;67.50;103048.51;106065;1259;60507;-90
2023/02/07 23:02:22;;;;;;;18.60;10.20;;;;;;;-5.88;67.22;103045.71;106332;1254;60079;-91
2023/02/07 23:04:50;;;;;;;18.60;10.50;;;;;;;-6.00;67.52;103039.36;106376;1259;73371;-89
2023/02/07 23:07:19;;;;;;;20.70;10.30;;;;;;;-6.10;67.79;103039.77;106500;1255;63897;-91
2023/02/07 23:09:47;;;;;;;16.40;10.10;;;;;;;-6.16;67.98;103045.77;106079;1254;71874;-91
2023/02/07 23:12:15;;;;;;;21.90;11.20;;;;;;;-6.20;68.22;103045.38;106445;1255;59648;-91
2023/02/07 23:14:44;;;;;;;21.00;10.20;;;;;;;-6.28;68.17;103045.72;107360;1254;61343;-90
2023/02/07 23:17:22;;;;;;;15.50;10.10;;;;;;;-6.36;68.37;103047.34;106688;1254;74085;-91
2023/02/07 23:19:51;;;;;;;18.00;9.60;;;;;;;-6.48;68.43;103047.13;106680;1260;64572;-88
2023/02/07 23:22:21;;;;;;;20.30;11.10;;;;;;;-6.57;68.64;103044.13;106625;1254;73633;-90
2023/02/07 23:24:50;;;;;;;11.40;8.50;;;;;;;-6.59;69.28;103048.27;106920;1254;63031;-89
2023/02/07 23:27:20;;;;;;;18.50;9.40;;;;;;;-6.65;69.04;103046.29;108267;1259;60132;-89
2023/02/07 23:29:49;;;;;;;14.00;8.90;;;;;;;-6.70;69.43;103051.81;108909;1258;72715;-89
2023/02/07 23:32:18;;;;;;;16.60;10.30;;;;;;;-6.66;69.90;103055.42;107688;1263;64531;-88
2023/02/07 23:34:47;;;;;;;17.70;8.50;;;;;;;-6.57;69.97;103058.73;106245;1264;73417;-91
2023/02/07 23:37:15;;;;;;;14.20;9.20;;;;;;;-6.50;69.81;103061.69;106505;1259;61142;-88
2023/02/07 23:39:44;;;;;;;18.50;8.90;;;;;;;-6.44;69.61;103065.34;108830;1259;60253;-89
2023/02/07 23:42:13;;;;;;;14.70;8.50;;;;;;;-6.36;69.55;103066.73;108017;1259;72919;-88
2023/02/07 23:44:44;;;;;;;13.20;7.70;;;;;;;-6.27;69.33;103062.59;109033;1258;63824;-91
2023/02/07 23:47:12;;;;;;;14.40;8.00;;;;;;;-6.23;69.11;103069.45;107267;1259;72645;-91
2023/02/07 23:49:48;;;;;;;12.60;8.00;;;;;;;-6.20;68.81;103065.33;105841;1262;62084;-90